Time;durP1;ratioP1;P1;durP2;ratioP2;P2;SDS_P1;SDS_P2;PMS_P1;PMS_P2;Temp;Humidity;BMP_temperature;BMP_pressure;BME280_temperature;BME280_humidity;BME280_pressure;Samples;Min_cycle;Max_cycle;Signal;HPM_P1;HPM_P2
2023/04/13 00:00:43;;;;;;;23.43;11.43;;;4.40;99.90;;;;;;4450356;28;659338;-69
2023/04/13 00:03:32;;;;;;;32.77;15.00;;;4.30;99.90;;;;;;4431481;28;658566;-69
2023/04/13 00:06:21;;;;;;;24.27;11.87;;;4.20;99.90;;;;;;4454060;28;658327;-69
2023/04/13 00:09:08;;;;;;;27.73;12.40;;;4.20;99.90;;;;;;4427386;28;659286;-69
2023/04/13 00:11:56;;;;;;;27.43;12.53;;;4.20;99.90;;;;;;4430068;28;658585;-69
2023/04/13 00:14:44;;;;;;;24.37;12.50;;;4.30;99.90;;;;;;4450421;28;658935;-69
2023/04/13 00:17:32;;;;;;;25.00;12.60;;;4.30;99.90;;;;;;4431146;28;659195;-69
2023/04/13 00:20:19;;;;;;;22.13;11.80;;;4.30;99.90;;;;;;4450174;28;658674;-69
2023/04/13 00:23:08;;;;;;;20.53;11.23;;;4.40;99.90;;;;;;4427059;28;658758;-69
2023/04/13 00:25:56;;;;;;;22.70;11.47;;;4.30;99.90;;;;;;4430783;28;659414;-69
2023/04/13 00:28:43;;;;;;;19.47;10.57;;;4.40;99.90;;;;;;4453329;28;658926;-69
2023/04/13 00:31:30;;;;;;;21.05;10.77;;;4.30;99.90;;;;;;4430780;28;658736;-69
2023/04/13 00:34:17;;;;;;;27.00;12.47;;;4.30;99.90;;;;;;4454086;28;660067;-69
2023/04/13 00:37:06;;;;;;;23.77;11.93;;;4.40;99.90;;;;;;4447668;28;659204;-68
2023/04/13 00:39:54;;;;;;;33.27;16.60;;;4.40;99.90;;;;;;4451218;28;660063;-69
2023/04/13 00:42:43;;;;;;;58.90;28.37;;;4.40;99.90;;;;;;4430946;28;658540;-69
2023/04/13 00:45:32;;;;;;;49.33;25.40;;;4.40;99.90;;;;;;4430855;28;659009;-69
2023/04/13 00:48:19;;;;;;;51.73;24.90;;;4.40;99.90;;;;;;4449553;28;659426;-69
2023/04/13 00:51:08;;;;;;;44.47;23.37;;;4.50;99.90;;;;;;4430633;28;660127;-69
2023/04/13 00:53:56;;;;;;;38.20;20.47;;;4.40;99.90;;;;;;4437426;28;658976;-69
2023/04/13 00:56:45;;;;;;;74.95;31.60;;;4.40;99.90;;;;;;4453643;28;658988;-69
2023/04/13 00:59:32;;;;;;;56.20;26.73;;;4.40;99.90;;;;;;4426219;28;659635;-69
2023/04/13 01:02:23;;;;;;;44.73;21.73;;;4.40;99.90;;;;;;4453445;28;658777;-69
2023/04/13 01:05:11;;;;;;;49.37;22.17;;;4.40;99.90;;;;;;4407113;28;658686;-69
2023/04/13 01:08:07;;;;;;;34.10;17.77;;;4.40;99.90;;;;;;4452636;28;659184;-68
2023/04/13 01:10:57;;;;;;;27.70;13.17;;;4.30;99.90;;;;;;4426146;28;659070;-69
2023/04/13 01:13:50;;;;;;;25.83;11.17;;;4.30;99.90;;;;;;4426273;28;659030;-69
2023/04/13 01:16:39;;;;;;;20.60;10.67;;;4.20;99.90;;;;;;4425788;28;658647;-69
2023/04/13 01:19:32;;;;;;;20.53;10.67;;;4.20;99.90;;;;;;4430306;28;660117;-69
2023/04/13 01:22:21;;;;;;;21.47;10.13;;;4.20;99.90;;;;;;4422082;28;658728;-69
2023/04/13 01:25:22;;;;;;;51.40;24.30;;;4.20;99.90;;;;;;4449126;28;659607;-69
2023/04/13 01:28:12;;;;;;;240.50;98.20;;;4.10;99.90;;;;;;4425755;28;658642;-69
2023/04/13 01:31:00;;;;;;;80.57;36.87;;;4.10;99.90;;;;;;4424720;28;659590;-69
2023/04/13 01:33:47;;;;;;;79.07;32.87;;;4.00;99.90;;;;;;4425850;28;659671;-69
2023/04/13 01:36:34;;;;;;;53.47;24.20;;;3.90;99.90;;;;;;4449087;28;658857;-69
2023/04/13 01:39:30;;;;;;;50.73;22.37;;;3.90;99.90;;;;;;4425503;28;659131;-69
2023/04/13 01:42:17;;;;;;;48.73;21.80;;;3.80;99.90;;;;;;4402915;28;660038;-69
2023/04/13 01:45:10;;;;;;;74.37;29.13;;;3.80;99.90;;;;;;4447959;28;659233;-69
2023/04/13 01:48:03;;;;;;;72.60;28.80;;;3.70;99.90;;;;;;4426064;28;659413;-69
2023/04/13 01:50:52;;;;;;;82.00;29.90;;;3.70;99.90;;;;;;4406703;28;658728;-69
2023/04/13 01:53:41;;;;;;;54.70;22.53;;;3.60;99.90;;;;;;4447570;28;658120;-69
2023/04/13 01:56:29;;;;;;;71.20;28.70;;;3.60;99.90;;;;;;4425789;28;658720;-69
2023/04/13 01:59:16;;;;;;;74.43;29.93;;;3.60;99.90;;;;;;4428321;28;658717;-69
2023/04/13 02:02:05;;;;;;;62.20;25.40;;;3.60;99.90;;;;;;4448374;28;660058;-69
2023/04/13 02:04:52;;;;;;;53.83;23.07;;;3.50;99.90;;;;;;4426866;28;659734;-69
2023/04/13 02:07:43;;;;;;;49.53;20.43;;;3.50;99.90;;;;;;4448823;28;658629;-69
2023/04/13 02:10:31;;;;;;;44.37;19.63;;;3.40;99.90;;;;;;4429742;28;658784;-69
2023/04/13 02:13:18;;;;;;;42.97;19.70;;;3.50;99.90;;;;;;4452042;28;659593;-69
2023/04/13 02:16:06;;;;;;;48.80;21.53;;;3.40;99.90;;;;;;4429535;28;658796;-69
2023/04/13 02:18:57;;;;;;;26.53;13.57;;;3.40;99.90;;;;;;4448760;28;658914;-69
2023/04/13 02:21:44;;;;;;;29.97;12.93;;;3.50;99.90;;;;;;4425457;28;659224;-69
2023/04/13 02:24:32;;;;;;;26.53;12.60;;;3.50;99.90;;;;;;4425510;28;660439;-69
2023/04/13 02:27:19;;;;;;;35.60;16.00;;;3.50;99.90;;;;;;4447053;28;658717;-69
2023/04/13 02:30:08;;;;;;;28.93;13.67;;;3.40;99.90;;;;;;4429549;28;659810;-69
2023/04/13 02:32:55;;;;;;;41.93;19.87;;;3.40;99.90;;;;;;4429403;28;658518;-69
2023/04/13 02:35:44;;;;;;;34.17;18.33;;;3.30;99.90;;;;;;4448567;28;659550;-69
2023/04/13 02:38:32;;;;;;;30.45;16.50;;;3.30;99.90;;;;;;4429586;28;658592;-69
2023/04/13 02:41:21;;;;;;;26.00;14.30;;;3.30;99.90;;;;;;4447652;28;658924;-69
2023/04/13 02:44:09;;;;;;;32.33;16.90;;;3.40;99.90;;;;;;4448290;28;658876;-69
2023/04/13 02:46:56;;;;;;;20.40;11.47;;;3.30;99.90;;;;;;4427612;28;658698;-69
2023/04/13 02:49:44;;;;;;;27.50;12.90;;;3.30;99.90;;;;;;4451410;28;659317;-69
2023/04/13 02:52:33;;;;;;;27.83;13.90;;;3.30;99.90;;;;;;4429883;28;659125;-69
2023/04/13 02:55:20;;;;;;;25.70;12.77;;;3.30;99.90;;;;;;4437267;28;658746;-69
2023/04/13 02:58:08;;;;;;;19.83;10.07;;;3.30;99.90;;;;;;4451822;28;659721;-69
2023/04/13 03:00:55;;;;;;;23.57;12.80;;;3.40;99.90;;;;;;4432359;28;658481;-69
2023/04/13 03:03:42;;;;;;;19.87;11.57;;;3.40;99.90;;;;;;4451066;28;660676;-69
2023/04/13 03:06:30;;;;;;;23.47;12.77;;;3.40;99.90;;;;;;4449433;28;658832;-69
2023/04/13 03:09:19;;;;;;;24.57;12.70;;;3.50;99.90;;;;;;4451653;28;660138;-69
2023/04/13 03:12:08;;;;;;;19.30;12.33;;;3.50;99.90;;;;;;4432172;28;658491;-69
2023/04/13 03:14:55;;;;;;;22.00;13.20;;;3.60;99.90;;;;;;4445366;28;658658;-68
2023/04/13 03:17:43;;;;;;;20.23;11.70;;;3.70;99.90;;;;;;4449889;28;658932;-69
2023/04/13 03:20:31;;;;;;;22.70;12.87;;;3.70;99.90;;;;;;4432451;28;658338;-68
2023/04/13 03:23:18;;;;;;;27.03;12.43;;;3.80;99.90;;;;;;4451085;28;659461;-69
2023/04/13 03:26:07;;;;;;;25.40;13.30;;;3.90;99.90;;;;;;4431957;28;658711;-69
2023/04/13 03:28:54;;;;;;;26.43;12.17;;;4.00;99.90;;;;;;4450827;28;658574;-69
2023/04/13 03:31:41;;;;;;;21.00;11.53;;;4.00;99.90;;;;;;4428153;28;658270;-69
2023/04/13 03:34:29;;;;;;;21.33;11.87;;;4.10;99.90;;;;;;4451147;28;659622;-69
2023/04/13 03:37:17;;;;;;;21.70;12.90;;;4.10;99.90;;;;;;4432032;28;658558;-69
2023/04/13 03:40:07;;;;;;;21.47;11.63;;;4.20;99.90;;;;;;4450874;28;658670;-69
2023/04/13 03:42:56;;;;;;;16.80;10.40;;;4.20;99.90;;;;;;4427803;28;658406;-70
2023/04/13 03:45:43;;;;;;;19.27;10.70;;;4.30;99.90;;;;;;4427609;28;658862;-70
2023/04/13 03:48:30;;;;;;;23.03;10.90;;;4.30;99.90;;;;;;4431590;28;658647;-70
2023/04/13 03:51:17;;;;;;;16.17;9.93;;;4.40;99.90;;;;;;4450564;28;660386;-70
2023/04/13 03:54:05;;;;;;;17.93;10.87;;;4.40;99.90;;;;;;4455930;28;657311;-70
2023/04/13 03:56:52;;;;;;;19.60;10.13;;;4.50;99.90;;;;;;4427456;28;660164;-70
2023/04/13 03:59:40;;;;;;;18.10;9.83;;;4.50;99.90;;;;;;4449794;28;658802;-70
2023/04/13 04:02:28;;;;;;;16.63;9.50;;;4.60;99.90;;;;;;4427810;28;658211;-70
2023/04/13 04:05:16;;;;;;;20.37;11.07;;;4.50;99.90;;;;;;4443388;28;657665;-70
2023/04/13 04:08:03;;;;;;;12.73;8.17;;;4.50;99.90;;;;;;4453444;28;659972;-70
2023/04/13 04:10:50;;;;;;;17.47;9.20;;;4.60;99.90;;;;;;4432278;28;657358;-70
2023/04/13 04:13:38;;;;;;;17.77;9.13;;;4.60;99.90;;;;;;4451435;28;658456;-71
2023/04/13 04:16:27;;;;;;;20.73;9.70;;;4.60;99.90;;;;;;4442278;28;657668;-70
2023/04/13 04:19:14;;;;;;;17.17;9.97;;;4.60;99.90;;;;;;4449243;28;658010;-70
2023/04/13 04:22:03;;;;;;;20.93;11.80;;;4.70;99.90;;;;;;4431872;28;657665;-70
2023/04/13 04:24:51;;;;;;;17.93;10.17;;;4.80;99.90;;;;;;4443682;28;659451;-70
2023/04/13 04:27:38;;;;;;;18.50;10.47;;;4.80;99.90;;;;;;4449804;28;660525;-70
2023/04/13 04:30:28;;;;;;;22.90;10.67;;;4.90;99.90;;;;;;4431271;28;658716;-70
2023/04/13 04:33:17;;;;;;;22.08;11.20;;;4.90;99.90;;;;;;4431061;28;658727;-70
2023/04/13 04:36:04;;;;;;;17.90;9.93;;;5.00;99.90;;;;;;4449958;28;658930;-71
2023/04/13 04:38:56;;;;;;;83.07;31.40;;;5.10;99.90;;;;;;4432224;28;658517;-70
2023/04/13 04:41:44;;;;;;;71.57;31.60;;;5.20;99.90;;;;;;4425178;28;659552;-71
2023/04/13 04:44:31;;;;;;;58.33;26.97;;;5.30;99.90;;;;;;4430790;28;658216;-70
2023/04/13 04:47:18;;;;;;;34.87;16.57;;;5.40;99.90;;;;;;4451189;28;658998;-71
2023/04/13 04:50:08;;;;;;;28.50;16.47;;;5.40;99.90;;;;;;4430632;28;658223;-71
2023/04/13 04:52:55;;;;;;;23.65;12.43;;;5.50;99.90;;;;;;4430432;28;659191;-70
2023/04/13 04:55:42;;;;;;;25.70;12.43;;;5.50;99.90;;;;;;4449652;28;659415;-71
2023/04/13 04:58:29;;;;;;;24.73;11.87;;;5.60;99.90;;;;;;4449739;28;659825;-70
2023/04/13 05:01:21;;;;;;;19.27;9.93;;;5.70;99.90;;;;;;4430299;28;659848;-71
2023/04/13 05:04:08;;;;;;;19.42;9.45;;;5.80;99.90;;;;;;4427755;28;658466;-71
2023/04/13 05:06:57;;;;;;;24.47;11.80;;;5.80;99.90;;;;;;4431359;28;657505;-70
2023/04/13 05:09:44;;;;;;;30.10;13.23;;;5.90;99.90;;;;;;4449136;28;659062;-71
2023/04/13 05:12:31;;;;;;;34.97;13.60;;;6.00;99.90;;;;;;4426925;28;659211;-70
2023/04/13 05:15:19;;;;;;;36.20;14.80;;;6.10;99.90;;;;;;4449079;28;658794;-71
2023/04/13 05:18:06;;;;;;;66.18;24.88;;;6.20;99.90;;;;;;4425707;28;658761;-71
2023/04/13 05:20:53;;;;;;;35.30;15.67;;;6.40;99.90;;;;;;4449252;28;659263;-71
2023/04/13 05:23:42;;;;;;;24.40;12.33;;;6.60;99.90;;;;;;4430057;28;658345;-71
2023/04/13 05:26:29;;;;;;;21.23;10.47;;;6.70;99.90;;;;;;4448888;28;658457;-71
2023/04/13 05:29:16;;;;;;;16.43;8.80;;;6.80;99.90;;;;;;4426243;28;658898;-71
2023/04/13 05:32:04;;;;;;;41.27;15.60;;;7.00;99.90;;;;;;4449116;28;657475;-71
2023/04/13 05:34:51;;;;;;;49.05;19.33;;;7.10;99.90;;;;;;4429364;28;658638;-71
2023/04/13 05:37:39;;;;;;;20.77;10.23;;;7.30;99.90;;;;;;4449096;28;658802;-71
2023/04/13 05:40:27;;;;;;;29.53;12.53;;;7.50;99.90;;;;;;4429776;28;658867;-71
2023/04/13 05:43:15;;;;;;;31.53;13.53;;;7.60;99.90;;;;;;4447299;28;658585;-70
2023/04/13 05:46:03;;;;;;;23.40;10.80;;;7.70;99.90;;;;;;4449138;28;659957;-71
2023/04/13 05:48:50;;;;;;;22.67;10.10;;;7.90;99.90;;;;;;4439395;28;658633;-71
2023/04/13 05:51:38;;;;;;;19.17;9.93;;;8.10;99.90;;;;;;4453031;28;659859;-71
2023/04/13 05:54:25;;;;;;;26.17;11.93;;;8.20;99.90;;;;;;4430919;28;657465;-71
2023/04/13 05:57:14;;;;;;;19.97;10.23;;;8.30;99.90;;;;;;4453012;28;659825;-71
2023/04/13 06:00:02;;;;;;;21.10;10.40;;;8.50;99.90;;;;;;4429963;28;658703;-72
2023/04/13 06:02:49;;;;;;;28.53;10.90;;;8.60;99.90;;;;;;4448487;28;659289;-71
2023/04/13 06:05:37;;;;;;;25.60;11.27;;;8.70;99.90;;;;;;4427240;28;659247;-71
2023/04/13 06:08:31;;;;;;;15.73;9.03;;;8.90;99.90;;;;;;4448603;28;658512;-72
2023/04/13 06:11:19;;;;;;;15.50;9.37;;;9.00;99.90;;;;;;4426663;28;657812;-71
2023/04/13 06:14:08;;;;;;;18.93;9.00;;;9.10;99.90;;;;;;4430994;28;657952;-71
2023/04/13 06:16:56;;;;;;;16.40;9.30;;;9.30;99.90;;;;;;4431532;28;657830;-71
2023/04/13 06:19:43;;;;;;;15.83;8.40;;;9.50;99.90;;;;;;4454457;28;658218;-72
2023/04/13 06:22:30;;;;;;;16.13;7.22;;;9.70;99.90;;;;;;4436479;28;658119;-71
2023/04/13 06:25:18;;;;;;;11.50;6.50;;;9.90;99.90;;;;;;4453693;28;659672;-71
2023/04/13 06:28:06;;;;;;;12.80;6.97;;;10.10;99.90;;;;;;4434154;28;657440;-71
2023/04/13 06:30:54;;;;;;;16.23;6.20;;;10.30;99.90;;;;;;4455114;28;659284;-72
2023/04/13 06:33:42;;;;;;;8.67;4.53;;;10.50;99.90;;;;;;4433114;28;660333;-71
2023/04/13 06:36:29;;;;;;;11.93;5.80;;;10.60;99.90;;;;;;4456407;28;657914;-71
2023/04/13 06:39:16;;;;;;;11.60;5.93;;;10.80;99.90;;;;;;4432824;28;658732;-72
2023/04/13 06:42:03;;;;;;;12.68;5.68;;;10.80;99.90;;;;;;4451684;28;659768;-72
2023/04/13 06:44:51;;;;;;;15.53;6.50;;;10.90;99.90;;;;;;4432907;28;659580;-71
2023/04/13 06:47:40;;;;;;;12.87;6.00;;;11.10;99.90;;;;;;4456028;28;659305;-72
2023/04/13 06:50:27;;;;;;;11.57;5.47;;;11.10;99.90;;;;;;4428713;28;659845;-72
2023/04/13 06:53:14;;;;;;;11.03;5.13;;;11.20;99.90;;;;;;4433835;28;660078;-71
2023/04/13 06:56:02;;;;;;;10.20;5.10;;;11.40;99.90;;;;;;4415414;28;659767;-71
2023/04/13 06:58:49;;;;;;;9.25;4.82;;;11.50;99.90;;;;;;4430975;28;658688;-72
2023/04/13 07:01:36;;;;;;;10.63;5.80;;;11.70;99.90;;;;;;4415932;28;657368;-71
2023/04/13 07:04:25;;;;;;;10.83;6.03;;;11.70;99.90;;;;;;4434092;28;658559;-71
2023/04/13 07:07:12;;;;;;;14.30;6.03;;;11.80;99.90;;;;;;4415240;28;659428;-71
2023/04/13 07:09:59;;;;;;;11.63;5.90;;;11.80;99.90;;;;;;4433766;28;659436;-72
2023/04/13 07:12:47;;;;;;;11.80;6.17;;;12.00;99.90;;;;;;4414867;28;660016;-72
2023/04/13 07:15:36;;;;;;;13.30;6.20;;;12.20;99.90;;;;;;4433643;28;658454;-72
2023/04/13 07:18:23;;;;;;;14.00;6.70;;;12.20;99.90;;;;;;4401707;28;660051;-72
2023/04/13 07:21:12;;;;;;;15.47;6.57;;;12.30;99.90;;;;;;4405549;28;658289;-71
2023/04/13 07:23:59;;;;;;;15.63;7.00;;;12.50;99.90;;;;;;4424865;28;658433;-72
2023/04/13 07:26:46;;;;;;;12.77;5.43;;;12.60;99.90;;;;;;4405981;28;658536;-72
2023/04/13 07:29:33;;;;;;;11.87;5.63;;;12.70;99.90;;;;;;4424449;28;658600;-72
2023/04/13 07:32:21;;;;;;;8.87;4.80;;;12.80;99.90;;;;;;4405632;28;658523;-71
2023/04/13 07:35:09;;;;;;;15.47;5.50;;;12.90;99.20;;;;;;4435745;28;658314;-72
2023/04/13 07:37:57;;;;;;;11.33;5.77;;;13.00;99.90;;;;;;4414555;28;658587;-72
2023/04/13 07:40:44;;;;;;;10.43;5.10;;;13.10;99.90;;;;;;4433272;28;659365;-72
2023/04/13 07:43:34;;;;;;;10.47;5.07;;;13.20;99.40;;;;;;4405851;28;658678;-71
2023/04/13 07:46:25;;;;;;;11.87;5.77;;;13.30;98.90;;;;;;4405911;28;659186;-72
2023/04/13 07:49:12;;;;;;;12.27;6.40;;;13.50;98.20;;;;;;4401799;28;660066;-71
2023/04/13 07:52:00;;;;;;;10.83;5.83;;;13.50;98.40;;;;;;4436711;28;658732;-71
2023/04/13 07:54:50;;;;;;;10.23;5.90;;;13.50;95.10;;;;;;4451148;28;660358;-72
2023/04/13 07:57:37;;;;;;;9.33;5.40;;;13.70;96.50;;;;;;4427796;28;659739;-72
2023/04/13 08:00:24;;;;;;;8.97;5.10;;;14.00;94.90;;;;;;4450484;28;657640;-72
2023/04/13 08:03:12;;;;;;;8.03;4.70;;;14.10;94.80;;;;;;4433105;28;657767;-72
2023/04/13 08:05:59;;;;;;;8.87;3.10;;;14.30;88.80;;;;;;4451942;28;657674;-72
2023/04/13 08:08:46;;;;;;;3.93;1.70;;;14.40;85.00;;;;;;4432888;28;657699;-71
2023/04/13 08:11:35;;;;;;;4.93;2.97;;;14.50;71.10;;;;;;4451519;28;658853;-72
2023/04/13 08:14:22;;;;;;;6.47;3.67;;;14.40;67.80;;;;;;4428772;27;658999;-72
2023/04/13 08:17:10;;;;;;;6.67;3.90;;;14.50;77.50;;;;;;4451496;28;657191;-72
2023/04/13 08:19:57;;;;;;;7.20;3.87;;;14.60;70.80;;;;;;4428668;28;659567;-71
2023/04/13 08:22:45;;;;;;;10.97;4.37;;;14.70;72.10;;;;;;4451432;28;658665;-72
2023/04/13 08:25:33;;;;;;;8.70;5.40;;;14.90;72.40;;;;;;4431395;28;659582;-73
2023/04/13 08:28:21;;;;;;;8.57;3.93;;;15.00;76.50;;;;;;4437422;28;658094;-71
2023/04/13 08:31:09;;;;;;;8.97;3.60;;;15.00;69.90;;;;;;4451332;28;657914;-72
2023/04/13 08:33:56;;;;;;;9.70;2.50;;;14.70;68.60;;;;;;4430860;28;657793;-71
2023/04/13 08:36:44;;;;;;;5.03;2.60;;;14.80;64.80;;;;;;4452949;28;658624;-72
2023/04/13 08:39:32;;;;;;;7.70;3.70;;;15.00;66.90;;;;;;4432572;28;657601;-72
2023/04/13 08:42:19;;;;;;;6.83;2.87;;;15.00;64.30;;;;;;4455321;28;657794;-72
2023/04/13 08:45:09;;;;;;;5.13;2.83;;;15.00;63.90;;;;;;4431572;28;658317;-72
2023/04/13 08:47:56;;;;;;;6.87;3.60;;;14.90;67.10;;;;;;4431853;28;657837;-72
2023/04/13 08:50:44;;;;;;;9.97;3.77;;;15.30;68.20;;;;;;4451131;28;658484;-72
2023/04/13 08:53:31;;;;;;;10.80;4.03;;;15.50;63.80;;;;;;4405879;28;657580;-71
2023/04/13 08:56:18;;;;;;;9.13;3.73;;;15.80;70.20;;;;;;4424932;28;659866;-72
2023/04/13 08:59:06;;;;;;;7.10;3.63;;;16.00;67.90;;;;;;4405534;28;657829;-71
2023/04/13 09:01:55;;;;;;;7.53;3.57;;;15.70;63.70;;;;;;4424264;28;658237;-72
2023/04/13 09:04:43;;;;;;;8.33;3.30;;;15.40;61.20;;;;;;4405566;28;657946;-72
2023/04/13 09:07:33;;;;;;;12.53;3.77;;;15.20;59.50;;;;;;4405646;28;657943;-71
2023/04/13 09:10:21;;;;;;;7.23;3.70;;;15.40;64.20;;;;;;4404188;28;658589;-71
2023/04/13 09:13:08;;;;;;;7.13;3.23;;;15.60;64.00;;;;;;4425614;28;659281;-72
2023/04/13 09:15:56;;;;;;;8.40;3.57;;;15.90;63.90;;;;;;4405210;28;657812;-71
2023/04/13 09:18:50;;;;;;;7.63;3.23;;;16.00;60.30;;;;;;4428138;28;658318;-72
2023/04/13 09:21:38;;;;;;;8.20;3.33;;;15.60;59.40;;;;;;4378132;28;658163;-72
2023/04/13 09:24:26;;;;;;;10.43;3.73;;;15.50;60.40;;;;;;4416806;28;657926;-71
2023/04/13 09:27:19;;;;;;;6.00;3.50;;;15.20;58.30;;;;;;4427225;28;659561;-73
2023/04/13 09:30:08;;;;;;;7.53;3.80;;;15.30;60.80;;;;;;4405446;28;657532;-72
2023/04/13 09:33:04;;;;;;;7.03;3.17;;;15.00;64.50;;;;;;4408257;28;658305;-71
2023/04/13 09:35:53;;;;;;;8.73;3.27;;;15.10;63.30;;;;;;4382486;28;658139;-72
2023/04/13 09:38:40;;;;;;;10.50;3.25;;;15.10;62.60;;;;;;4408407;28;657624;-72
2023/04/13 09:41:31;;;;;;;5.67;3.20;;;15.00;63.10;;;;;;4431281;28;660258;-72
2023/04/13 09:44:19;;;;;;;8.48;3.45;;;14.20;61.60;;;;;;4409815;28;658514;-72
2023/04/13 09:47:07;;;;;;;11.33;3.30;;;14.30;59.30;;;;;;4402083;28;657415;-72
2023/04/13 09:49:55;;;;;;;4.75;3.15;;;14.80;62.40;;;;;;4422321;28;658838;-72
2023/04/13 09:52:45;;;;;;;7.72;3.67;;;14.90;62.50;;;;;;4419994;28;658972;-73
2023/04/13 09:55:33;;;;;;;6.13;3.30;;;14.60;59.50;;;;;;4431091;28;658204;-72
2023/04/13 09:58:20;;;;;;;8.90;3.50;;;14.80;62.20;;;;;;4433754;28;657574;-72
2023/04/13 10:01:08;;;;;;;10.10;3.73;;;15.40;65.30;;;;;;4453995;28;659145;-72
2023/04/13 10:03:56;;;;;;;6.97;3.40;;;15.60;57.80;;;;;;4433685;28;659046;-72
2023/04/13 10:06:43;;;;;;;10.10;3.47;;;16.00;60.40;;;;;;4458092;28;658475;-73
2023/04/13 10:09:32;;;;;;;5.23;3.20;;;16.20;59.90;;;;;;4433488;28;658535;-72
2023/04/13 10:12:19;;;;;;;7.37;3.17;;;16.40;58.80;;;;;;4456512;28;657405;-72
2023/04/13 10:15:12;;;;;;;6.33;3.30;;;16.60;61.00;;;;;;4434845;28;658019;-72
2023/04/13 10:18:05;;;;;;;8.10;3.43;;;16.90;59.00;;;;;;4430137;28;657952;-72
2023/04/13 10:20:53;;;;;;;8.83;3.57;;;17.30;58.50;;;;;;4430599;28;657549;-72
2023/04/13 10:23:40;;;;;;;6.17;3.37;;;17.60;56.80;;;;;;4445219;28;658378;-72
2023/04/13 10:26:32;;;;;;;5.37;3.03;;;17.80;56.60;;;;;;4453377;28;658986;-73
2023/04/13 10:29:27;;;;;;;9.17;3.00;;;17.80;53.70;;;;;;4430333;28;658377;-72
2023/04/13 10:32:22;;;;;;;5.65;3.00;;;17.40;53.20;;;;;;4425708;28;658821;-72
2023/04/13 10:35:10;;;;;;;5.17;2.90;;;17.30;57.10;;;;;;4429979;28;657771;-73
2023/04/13 10:37:57;;;;;;;9.07;3.38;;;17.50;55.50;;;;;;4434298;28;658223;-73
2023/04/13 10:40:45;;;;;;;6.53;3.33;;;17.60;53.10;;;;;;4453153;28;657412;-72
2023/04/13 10:43:34;;;;;;;7.20;3.40;;;17.40;52.90;;;;;;4434263;28;657945;-72
2023/04/13 10:46:21;;;;;;;6.43;3.27;;;17.70;57.30;;;;;;4434329;28;657654;-73
2023/04/13 10:49:08;;;;;;;6.57;3.57;;;18.20;55.50;;;;;;4453118;28;658402;-73
2023/04/13 10:51:55;;;;;;;7.47;2.90;;;18.80;55.30;;;;;;4433012;28;657622;-72
2023/04/13 10:54:43;;;;;;;6.13;3.40;;;19.20;52.50;;;;;;4453119;28;659103;-73
2023/04/13 10:57:34;;;;;;;8.17;3.53;;;18.50;56.00;;;;;;4433923;28;657465;-71
2023/04/13 11:00:24;;;;;;;7.67;3.13;;;18.00;49.90;;;;;;4433712;28;657856;-72
2023/04/13 11:03:13;;;;;;;10.20;3.33;;;17.70;52.40;;;;;;4433846;28;657610;-73
2023/04/13 11:06:01;;;;;;;5.90;3.00;;;16.70;53.20;;;;;;4432136;28;658699;-72
2023/04/13 11:08:48;;;;;;;7.07;2.63;;;17.10;56.80;;;;;;4455728;28;657991;-73
2023/04/13 11:11:36;;;;;;;8.33;3.07;;;17.80;58.50;;;;;;4433448;28;657332;-72
2023/04/13 11:14:23;;;;;;;6.17;3.20;;;18.10;53.10;;;;;;4452230;28;659022;-73
2023/04/13 11:17:15;;;;;;;10.47;4.00;;;18.80;53.70;;;;;;4433212;28;657749;-72
2023/04/13 11:20:08;;;;;;;5.50;2.90;;;19.40;53.70;;;;;;4432536;28;659822;-73
2023/04/13 11:22:56;;;;;;;6.77;3.20;;;19.80;54.80;;;;;;4418688;28;657807;-71
2023/04/13 11:25:51;;;;;;;7.37;3.03;;;19.90;49.60;;;;;;4456774;28;658508;-73
2023/04/13 11:28:39;;;;;;;7.50;3.17;;;19.70;51.30;;;;;;4428682;28;658183;-73
2023/04/13 11:31:37;;;;;;;8.57;3.40;;;19.90;49.10;;;;;;4433260;28;658549;-73
2023/04/13 11:34:27;;;;;;;5.13;3.30;;;20.00;49.10;;;;;;4429064;28;658331;-73
2023/04/13 11:37:14;;;;;;;7.53;3.33;;;20.00;47.20;;;;;;4429133;28;657635;-73
2023/04/13 11:40:15;;;;;;;5.20;3.13;;;20.00;46.30;;;;;;4432890;28;657904;-73
2023/04/13 11:43:02;;;;;;;6.27;3.40;;;19.70;48.60;;;;;;4406005;28;657908;-73
2023/04/13 11:45:50;;;;;;;41.97;11.60;;;19.50;49.30;;;;;;4450119;28;657546;-72
2023/04/13 11:48:37;;;;;;;6.50;3.07;;;19.70;50.10;;;;;;4453450;28;659768;-73
2023/04/13 11:51:26;;;;;;;5.57;2.40;;;19.60;46.30;;;;;;4451329;28;657690;-73
2023/04/13 11:54:13;;;;;;;8.77;2.90;;;19.90;49.10;;;;;;4428717;28;658457;-73
2023/04/13 11:57:01;;;;;;;8.57;2.60;;;20.20;49.50;;;;;;4432741;28;658354;-72
2023/04/13 11:59:48;;;;;;;20.10;6.23;;;20.10;47.60;;;;;;4456116;28;658034;-73
2023/04/13 12:02:35;;;;;;;9.80;3.63;;;20.00;50.00;;;;;;4435316;28;658627;-72
2023/04/13 12:05:23;;;;;;;7.37;2.93;;;19.90;48.80;;;;;;4451575;28;658523;-73
2023/04/13 12:08:20;;;;;;;7.27;3.50;;;19.80;47.80;;;;;;4443257;28;657642;-71
2023/04/13 12:11:07;;;;;;;5.50;3.20;;;19.50;50.40;;;;;;4405307;28;658860;-73
2023/04/13 12:13:55;;;;;;;5.90;2.95;;;19.50;46.70;;;;;;4451713;28;657918;-73
2023/04/13 12:16:43;;;;;;;8.33;3.30;;;17.90;53.60;;;;;;4428156;28;658379;-73
2023/04/13 12:19:30;;;;;;;5.57;3.00;;;18.70;50.20;;;;;;4444078;28;657654;-72
2023/04/13 12:22:18;;;;;;;4.97;3.30;;;19.00;50.40;;;;;;4455778;28;658120;-73
2023/04/13 12:25:16;;;;;;;4.28;2.60;;;19.10;51.00;;;;;;4435514;28;657855;-72
2023/04/13 12:28:03;;;;;;;9.10;3.20;;;18.70;52.00;;;;;;4428381;28;658318;-73
2023/04/13 12:30:50;;;;;;;4.67;2.90;;;17.80;52.30;;;;;;4432485;28;657373;-71
2023/04/13 12:33:37;;;;;;;5.53;3.10;;;17.60;50.20;;;;;;4455279;28;658187;-73
2023/04/13 12:36:27;;;;;;;5.67;3.17;;;18.20;53.80;;;;;;4450911;28;658040;-72
2023/04/13 12:39:14;;;;;;;9.43;3.00;;;17.80;51.60;;;;;;4455242;28;657955;-73
2023/04/13 12:42:03;;;;;;;6.67;2.83;;;18.00;50.30;;;;;;4432188;28;657560;-73
2023/04/13 12:44:50;;;;;;;5.77;3.30;;;17.30;53.50;;;;;;4436757;28;657543;-72
2023/04/13 12:47:37;;;;;;;5.87;2.87;;;17.40;52.50;;;;;;4454772;28;658216;-73
2023/04/13 12:50:25;;;;;;;8.57;2.90;;;17.20;51.70;;;;;;4455096;28;657740;-73
2023/04/13 12:53:12;;;;;;;6.27;3.20;;;17.20;54.60;;;;;;4401161;28;659366;-73
2023/04/13 12:55:59;;;;;;;6.10;3.20;;;17.20;54.60;;;;;;4432915;28;658156;-73
2023/04/13 12:58:48;;;;;;;8.67;3.57;;;17.20;53.30;;;;;;4405527;28;657480;-72
2023/04/13 13:01:36;;;;;;;6.57;3.60;;;16.80;52.90;;;;;;4405098;28;657780;-71
2023/04/13 13:04:23;;;;;;;5.77;3.27;;;16.20;54.90;;;;;;4428474;28;658563;-73
2023/04/13 13:07:10;;;;;;;9.27;3.80;;;15.90;56.40;;;;;;4405218;28;658360;-72
2023/04/13 13:09:59;;;;;;;7.97;3.60;;;15.70;56.80;;;;;;4424345;28;659202;-73
2023/04/13 13:12:47;;;;;;;5.23;3.40;;;15.60;56.90;;;;;;4405107;28;658116;-73
2023/04/13 13:15:35;;;;;;;6.90;3.27;;;15.60;57.40;;;;;;4432679;28;658168;-73
2023/04/13 13:18:22;;;;;;;9.73;3.40;;;15.90;56.40;;;;;;4405167;28;658630;-73
2023/04/13 13:21:10;;;;;;;9.57;4.03;;;15.90;58.30;;;;;;4422704;28;657294;-71
2023/04/13 13:23:57;;;;;;;6.80;3.53;;;15.90;57.00;;;;;;4424035;28;660179;-73
2023/04/13 13:26:45;;;;;;;8.47;3.77;;;15.60;57.60;;;;;;4420663;28;658659;-71
2023/04/13 13:29:35;;;;;;;9.37;3.97;;;15.30;58.80;;;;;;4419257;28;658126;-73
2023/04/13 13:32:25;;;;;;;6.20;3.57;;;15.00;60.00;;;;;;4400284;28;659091;-73
2023/04/13 13:35:12;;;;;;;8.43;3.93;;;15.10;58.90;;;;;;4401198;28;658565;-73
2023/04/13 13:38:01;;;;;;;4.87;3.40;;;15.10;59.60;;;;;;4420712;28;657242;-71
2023/04/13 13:40:48;;;;;;;7.57;3.60;;;15.20;60.70;;;;;;4427541;28;658732;-73
2023/04/13 13:43:35;;;;;;;7.13;3.60;;;15.10;60.20;;;;;;4405249;28;657454;-71
2023/04/13 13:46:22;;;;;;;10.00;3.97;;;15.00;60.40;;;;;;4423873;28;659174;-73
2023/04/13 13:49:12;;;;;;;7.33;3.50;;;14.90;62.70;;;;;;4421609;28;659047;-72
2023/04/13 13:51:59;;;;;;;10.23;3.63;;;14.90;62.50;;;;;;4437176;28;657899;-73
2023/04/13 13:54:46;;;;;;;8.47;4.00;;;15.00;63.20;;;;;;4430027;28;658976;-73
2023/04/13 13:57:33;;;;;;;11.63;4.00;;;15.00;62.70;;;;;;4449843;28;659291;-73
2023/04/13 14:00:21;;;;;;;7.43;3.80;;;14.90;63.20;;;;;;4429990;28;658767;-73
2023/04/13 14:03:08;;;;;;;7.63;3.95;;;14.90;63.50;;;;;;4450107;28;659141;-73
2023/04/13 14:05:57;;;;;;;7.00;3.40;;;14.80;62.50;;;;;;4431117;28;657523;-72
2023/04/13 14:08:44;;;;;;;6.63;3.47;;;14.70;65.70;;;;;;4450070;28;658140;-73
2023/04/13 14:11:31;;;;;;;10.17;3.80;;;14.60;65.60;;;;;;4430615;28;657255;-72
2023/04/13 14:14:19;;;;;;;11.73;4.70;;;14.40;68.20;;;;;;4448850;28;659331;-73
2023/04/13 14:17:06;;;;;;;12.70;4.30;;;14.30;69.20;;;;;;4429431;28;659121;-73